Time;durP1;ratioP1;P1;durP2;ratioP2;P2;SDS_P1;SDS_P2;PMS_P1;PMS_P2;Temp;Humidity;BMP_temperature;BMP_pressure;BME280_temperature;BME280_humidity;BME280_pressure;Samples;Min_cycle;Max_cycle;Signal;HPM_P1;HPM_P2
2022/07/11 00:00:06;;;;;;;7.32;2.53;;;16.00;99.90;;;;;;5098362;28;20044;-76
2022/07/11 00:02:33;;;;;;;7.00;2.08;;;15.90;99.90;;;;;;5116725;27;20487;-77
2022/07/11 00:05:01;;;;;;;4.32;2.20;;;15.90;99.90;;;;;;5118685;27;20115;-76
2022/07/11 00:07:29;;;;;;;3.65;2.42;;;15.90;99.90;;;;;;5118502;27;20077;-76
2022/07/11 00:09:56;;;;;;;5.07;2.08;;;15.90;99.90;;;;;;5134346;27;20051;-77
2022/07/11 00:12:26;;;;;;;3.42;2.38;;;15.90;99.90;;;;;;5117833;27;20043;-77
2022/07/11 00:14:53;;;;;;;4.63;2.03;;;15.80;99.90;;;;;;5118555;27;20055;-76
2022/07/11 00:17:20;;;;;;;3.97;2.08;;;15.90;99.90;;;;;;5135778;27;20448;-78
2022/07/11 00:19:47;;;;;;;3.85;2.47;;;15.80;99.90;;;;;;5135427;27;20100;-77
2022/07/11 00:22:15;;;;;;;3.75;2.30;;;15.80;99.90;;;;;;5117838;27;20206;-76
2022/07/11 00:24:42;;;;;;;3.97;2.10;;;15.80;99.90;;;;;;5117405;27;20043;-77
2022/07/11 00:27:09;;;;;;;4.72;2.45;;;15.80;99.90;;;;;;5135368;27;20486;-77
2022/07/11 00:29:36;;;;;;;5.80;2.28;;;15.80;99.90;;;;;;5115343;28;20059;-77
2022/07/11 00:32:03;;;;;;;4.90;2.25;;;15.70;99.90;;;;;;5097822;28;20060;-77
2022/07/11 00:34:30;;;;;;;5.53;2.67;;;15.80;99.90;;;;;;5097594;28;20082;-75
2022/07/11 00:36:57;;;;;;;3.75;2.13;;;15.80;99.90;;;;;;5097019;28;20055;-78
2022/07/11 00:39:25;;;;;;;3.63;1.92;;;15.70;99.90;;;;;;5115713;28;20559;-78
2022/07/11 00:41:52;;;;;;;4.65;2.20;;;15.80;99.90;;;;;;5115727;27;20491;-76
2022/07/11 00:44:19;;;;;;;3.25;2.20;;;15.70;99.90;;;;;;5114851;28;20047;-77
2022/07/11 00:46:46;;;;;;;6.15;1.85;;;15.70;99.90;;;;;;5097359;28;20529;-77
2022/07/11 00:49:13;;;;;;;3.15;2.30;;;15.70;99.90;;;;;;5115699;28;20093;-78
2022/07/11 00:51:40;;;;;;;5.63;1.83;;;15.80;99.90;;;;;;5096333;28;20495;-79
2022/07/11 00:54:10;;;;;;;2.85;1.92;;;15.80;99.90;;;;;;5115766;28;20085;-78
2022/07/11 00:56:39;;;;;;;4.93;1.80;;;15.70;99.90;;;;;;5097401;27;20082;-77
2022/07/11 00:59:06;;;;;;;3.42;1.90;;;15.60;99.90;;;;;;5135162;27;20043;-77
2022/07/11 01:01:34;;;;;;;3.17;1.88;;;15.70;99.90;;;;;;5117742;27;20494;-78
2022/07/11 01:04:03;;;;;;;4.13;2.25;;;15.70;99.90;;;;;;5117505;27;20057;-78
2022/07/11 01:06:30;;;;;;;3.28;2.45;;;15.80;99.90;;;;;;5134606;27;20047;-77
2022/07/11 01:08:57;;;;;;;3.40;1.95;;;15.70;99.90;;;;;;5117319;27;20047;-77
2022/07/11 01:11:23;;;;;;;4.07;2.38;;;15.70;99.90;;;;;;5117648;27;20561;-77
2022/07/11 01:13:52;;;;;;;2.78;1.88;;;15.70;99.90;;;;;;5135065;27;20058;-77
2022/07/11 01:16:21;;;;;;;2.88;1.90;;;15.70;99.90;;;;;;5135419;27;20051;-76
2022/07/11 01:18:50;;;;;;;8.18;2.13;;;15.70;99.90;;;;;;5116585;27;20092;-77
2022/07/11 01:21:22;;;;;;;6.85;2.45;;;15.70;99.90;;;;;;5121736;27;20572;-77
2022/07/11 01:23:51;;;;;;;5.93;2.50;;;15.70;99.90;;;;;;5114817;28;20568;-76
2022/07/11 01:26:20;;;;;;;3.08;2.13;;;15.70;99.90;;;;;;5096015;28;20059;-76
2022/07/11 01:28:47;;;;;;;4.00;2.40;;;15.70;99.90;;;;;;5132893;27;20108;-76
2022/07/11 01:31:14;;;;;;;3.67;2.15;;;15.70;99.90;;;;;;5135556;27;20108;-76
2022/07/11 01:33:41;;;;;;;4.00;2.03;;;15.70;99.90;;;;;;5116202;27;20082;-77
2022/07/11 01:36:09;;;;;;;4.38;2.75;;;15.70;99.90;;;;;;5117051;27;20086;-77
2022/07/11 01:38:36;;;;;;;5.18;2.67;;;15.70;99.90;;;;;;5116550;27;20483;-77
2022/07/11 01:41:05;;;;;;;4.60;3.00;;;15.70;99.90;;;;;;5134199;27;20419;-75
2022/07/11 01:43:32;;;;;;;6.10;2.85;;;15.70;99.90;;;;;;5116394;27;20107;-76
2022/07/11 01:45:59;;;;;;;5.60;2.40;;;15.70;99.90;;;;;;5125517;27;20048;-76
2022/07/11 01:48:26;;;;;;;5.13;3.05;;;15.70;99.90;;;;;;5113199;28;20040;-77
2022/07/11 01:50:54;;;;;;;7.30;2.90;;;15.70;99.90;;;;;;5096290;28;20048;-75
2022/07/11 01:53:21;;;;;;;8.43;2.90;;;15.70;99.90;;;;;;5097226;28;20107;-77
2022/07/11 01:55:48;;;;;;;3.63;2.42;;;15.70;99.90;;;;;;5113320;28;20513;-77
2022/07/11 01:58:16;;;;;;;5.43;2.40;;;15.70;99.90;;;;;;5109275;27;20051;-76
2022/07/11 02:00:43;;;;;;;4.78;2.28;;;15.70;99.90;;;;;;5116049;27;20107;-77
2022/07/11 02:03:10;;;;;;;3.45;1.95;;;15.70;99.90;;;;;;5114984;27;20084;-75
2022/07/11 02:05:38;;;;;;;5.32;2.42;;;15.70;99.90;;;;;;5134434;27;20054;-75
2022/07/11 02:08:13;;;;;;;3.90;2.22;;;15.70;99.90;;;;;;5115360;27;20043;-75
2022/07/11 02:10:41;;;;;;;3.42;2.10;;;15.70;99.90;;;;;;5116354;27;20116;-75
2022/07/11 02:13:09;;;;;;;5.90;2.20;;;15.70;99.90;;;;;;5134412;27;20494;-75
2022/07/11 02:15:37;;;;;;;3.70;2.25;;;15.70;99.90;;;;;;5114987;27;20409;-76
2022/07/11 02:18:04;;;;;;;4.88;2.28;;;15.70;99.90;;;;;;5134226;27;20047;-76
2022/07/11 02:20:33;;;;;;;4.25;2.22;;;15.70;99.90;;;;;;5134548;27;20054;-75
2022/07/11 02:23:00;;;;;;;4.65;2.08;;;15.70;99.90;;;;;;5115662;27;20134;-75
2022/07/11 02:25:27;;;;;;;5.10;2.47;;;15.70;99.90;;;;;;5116283;27;20104;-76
2022/07/11 02:27:54;;;;;;;3.95;2.47;;;15.60;99.90;;;;;;5123327;27;20487;-75
2022/07/11 02:30:22;;;;;;;3.75;2.20;;;15.60;99.90;;;;;;5094679;28;20097;-75
2022/07/11 02:32:51;;;;;;;3.33;2.38;;;15.60;99.90;;;;;;5113772;28;20054;-75
2022/07/11 02:35:18;;;;;;;5.32;2.55;;;15.70;99.90;;;;;;5113472;28;20044;-75
2022/07/11 02:37:45;;;;;;;3.85;2.45;;;15.70;99.90;;;;;;5112836;28;20043;-76
2022/07/11 02:40:12;;;;;;;6.95;2.67;;;15.60;99.90;;;;;;5095121;28;20112;-74
2022/07/11 02:42:39;;;;;;;6.68;2.40;;;15.70;99.90;;;;;;5113968;28;20047;-75
2022/07/11 02:45:07;;;;;;;4.97;2.40;;;15.70;99.90;;;;;;5112592;28;20055;-76
2022/07/11 02:47:36;;;;;;;5.78;2.83;;;15.60;99.90;;;;;;5113401;28;20521;-75
2022/07/11 02:50:05;;;;;;;5.75;2.60;;;15.60;99.90;;;;;;5094853;28;20125;-76
2022/07/11 02:52:32;;;;;;;6.15;2.80;;;15.70;99.90;;;;;;5113569;28;20093;-75
2022/07/11 02:54:59;;;;;;;5.53;2.55;;;15.70;99.90;;;;;;5095210;28;20069;-76
2022/07/11 02:57:26;;;;;;;8.10;2.50;;;15.70;99.90;;;;;;5114496;28;20051;-75
2022/07/11 02:59:53;;;;;;;3.92;2.50;;;15.70;99.90;;;;;;5095308;28;20399;-76
2022/07/11 03:02:20;;;;;;;5.57;2.50;;;15.70;99.90;;;;;;5095115;28;20514;-76
2022/07/11 03:04:47;;;;;;;5.68;2.40;;;15.60;99.90;;;;;;5094166;28;20134;-76
2022/07/11 03:07:16;;;;;;;3.95;2.55;;;15.60;99.90;;;;;;5095276;28;20411;-76
2022/07/11 03:09:43;;;;;;;5.90;2.28;;;15.60;99.90;;;;;;5113195;28;20051;-75
2022/07/11 03:12:10;;;;;;;4.38;2.38;;;15.50;99.90;;;;;;5112519;28;20508;-77
2022/07/11 03:14:37;;;;;;;4.95;2.63;;;15.60;99.90;;;;;;5126294;27;20096;-77
2022/07/11 03:17:04;;;;;;;7.70;2.58;;;15.60;99.90;;;;;;5118304;27;20055;-76
2022/07/11 03:19:31;;;;;;;3.85;2.35;;;15.60;99.90;;;;;;5118670;27;20522;-76
2022/07/11 03:21:58;;;;;;;4.38;2.60;;;15.60;99.90;;;;;;5137922;27;20057;-83
2022/07/11 03:24:26;;;;;;;4.35;2.15;;;15.70;99.90;;;;;;5102181;28;20475;-79
2022/07/11 03:26:53;;;;;;;4.72;2.25;;;15.60;99.90;;;;;;5136715;27;20047;-77
2022/07/11 03:29:20;;;;;;;3.47;1.92;;;15.60;99.90;;;;;;5137320;27;20092;-78
2022/07/11 03:31:47;;;;;;;4.85;2.13;;;15.60;99.90;;;;;;5119081;27;20051;-78
2022/07/11 03:34:14;;;;;;;4.43;2.33;;;15.60;99.90;;;;;;5137064;27;20047;-78
2022/07/11 03:36:41;;;;;;;3.90;1.90;;;15.60;99.90;;;;;;5118454;27;20068;-79
2022/07/11 03:39:08;;;;;;;3.63;1.92;;;15.60;99.90;;;;;;5137562;27;20047;-78
2022/07/11 03:41:36;;;;;;;7.53;2.13;;;15.60;99.90;;;;;;5116403;27;20411;-76
2022/07/11 03:44:03;;;;;;;3.08;2.00;;;15.60;99.90;;;;;;5099253;28;20380;-75
2022/07/11 03:46:29;;;;;;;4.80;2.08;;;15.60;99.90;;;;;;5115936;28;20493;-75
2022/07/11 03:48:56;;;;;;;2.90;1.80;;;15.60;99.90;;;;;;5121899;27;20047;-76
2022/07/11 03:51:23;;;;;;;3.03;1.35;;;15.60;99.90;;;;;;5106177;28;20081;-76
2022/07/11 03:53:50;;;;;;;3.17;1.25;;;15.60;99.90;;;;;;5101631;28;20047;-76
2022/07/11 03:56:22;;;;;;;2.58;1.17;;;15.60;99.90;;;;;;5132551;27;20047;-75
2022/07/11 03:58:50;;;;;;;3.85;1.42;;;15.70;99.90;;;;;;5119220;27;20062;-76
2022/07/11 04:01:18;;;;;;;2.97;1.30;;;15.60;99.90;;;;;;5135635;27;20047;-75
2022/07/11 04:03:45;;;;;;;3.45;1.52;;;15.70;99.90;;;;;;5119129;27;20452;-75
2022/07/11 04:06:13;;;;;;;3.00;1.63;;;15.70;99.90;;;;;;5118510;27;20047;-76
2022/07/11 04:08:39;;;;;;;2.85;1.23;;;15.70;99.90;;;;;;5133931;27;20411;-76
2022/07/11 04:11:07;;;;;;;3.80;1.42;;;15.70;99.90;;;;;;5116332;28;20105;-76
2022/07/11 04:13:34;;;;;;;3.10;1.10;;;15.80;99.90;;;;;;5116687;28;20043;-76
2022/07/11 04:16:02;;;;;;;3.20;1.20;;;15.80;99.90;;;;;;5115659;28;20056;-76
2022/07/11 04:18:29;;;;;;;3.85;1.40;;;15.80;99.90;;;;;;5116086;28;20556;-76
2022/07/11 04:20:56;;;;;;;2.90;1.48;;;15.70;99.90;;;;;;5115736;28;20055;-76
2022/07/11 04:23:23;;;;;;;4.25;1.17;;;15.70;99.90;;;;;;5113945;28;20055;-76
2022/07/11 04:25:49;;;;;;;3.35;1.40;;;15.80;99.90;;;;;;5105656;27;20055;-77
2022/07/11 04:28:16;;;;;;;3.60;1.00;;;15.80;99.90;;;;;;5118010;27;20054;-75
2022/07/11 04:30:43;;;;;;;3.80;1.23;;;15.90;99.90;;;;;;5135855;27;20498;-78
2022/07/11 04:33:11;;;;;;;3.03;1.40;;;15.90;99.90;;;;;;5118296;27;20051;-77
2022/07/11 04:35:38;;;;;;;3.25;1.60;;;15.90;99.90;;;;;;5135732;27;20422;-76
2022/07/11 04:38:05;;;;;;;4.00;1.25;;;15.90;99.90;;;;;;5118038;27;20119;-77
2022/07/11 04:40:32;;;;;;;5.25;1.02;;;15.90;99.90;;;;;;5101035;28;20487;-76
2022/07/11 04:42:59;;;;;;;2.25;1.23;;;15.90;99.90;;;;;;5096592;28;20517;-78
2022/07/11 04:45:26;;;;;;;2.53;0.98;;;15.90;99.90;;;;;;5115402;28;20526;-79
2022/07/11 04:47:53;;;;;;;5.05;1.20;;;15.90;99.90;;;;;;5097434;28;20051;-79
2022/07/11 04:50:21;;;;;;;3.30;0.93;;;15.90;99.90;;;;;;5096277;28;20048;-79
2022/07/11 04:52:48;;;;;;;3.53;0.90;;;16.00;99.90;;;;;;5097472;28;20537;-79
2022/07/11 04:55:17;;;;;;;1.95;0.80;;;16.00;99.90;;;;;;5097341;28;20051;-79
2022/07/11 04:57:44;;;;;;;5.10;1.20;;;16.10;99.90;;;;;;5096554;27;20051;-78
2022/07/11 05:00:12;;;;;;;2.25;0.70;;;16.10;99.90;;;;;;5097367;28;20096;-78
2022/07/11 05:02:39;;;;;;;1.30;0.60;;;16.20;99.90;;;;;;5097446;28;20487;-76
2022/07/11 05:05:06;;;;;;;2.80;0.70;;;16.30;99.90;;;;;;5096481;28;20063;-77
2022/07/11 05:07:35;;;;;;;2.55;1.02;;;16.30;99.90;;;;;;5115161;28;20453;-76
2022/07/11 05:10:02;;;;;;;2.78;1.00;;;16.40;99.90;;;;;;5120776;27;20524;-76
2022/07/11 05:12:28;;;;;;;2.03;1.00;;;16.50;99.90;;;;;;5110163;27;20047;-76
2022/07/11 05:14:58;;;;;;;4.40;1.35;;;16.60;99.90;;;;;;5112114;27;20194;-76
2022/07/11 05:17:25;;;;;;;2.15;1.00;;;16.60;99.90;;;;;;5130140;27;20384;-77
2022/07/11 05:19:52;;;;;;;2.75;0.82;;;16.70;99.90;;;;;;5124549;27;20107;-76
2022/07/11 05:22:19;;;;;;;2.20;0.90;;;16.70;99.90;;;;;;5124602;27;20040;-76
2022/07/11 05:24:47;;;;;;;2.42;0.80;;;16.70;99.90;;;;;;5111057;27;20179;-79
2022/07/11 05:27:14;;;;;;;5.65;1.23;;;16.70;99.90;;;;;;5108636;27;20100;-76
2022/07/11 05:29:43;;;;;;;1.60;0.80;;;16.70;99.90;;;;;;5110515;27;20043;-78
2022/07/11 05:32:10;;;;;;;6.43;1.05;;;16.80;99.90;;;;;;5109076;27;20480;-77
2022/07/11 05:34:37;;;;;;;2.38;1.00;;;16.80;99.90;;;;;;5127573;27;20514;-77
2022/07/11 05:37:04;;;;;;;1.30;0.70;;;16.80;99.90;;;;;;5127325;27;20046;-76
2022/07/11 05:39:31;;;;;;;4.18;0.90;;;16.90;99.90;;;;;;5125053;27;20088;-78
2022/07/11 05:41:59;;;;;;;2.85;0.70;;;16.90;99.90;;;;;;5131942;27;20625;-77
2022/07/11 05:44:26;;;;;;;4.82;1.10;;;16.90;99.90;;;;;;5109027;27;20051;-78
2022/07/11 05:46:53;;;;;;;2.95;1.00;;;17.00;99.90;;;;;;5130947;27;20406;-75
2022/07/11 05:49:20;;;;;;;1.92;0.90;;;16.90;99.90;;;;;;5127857;27;20048;-76
2022/07/11 05:51:47;;;;;;;3.40;1.10;;;16.90;99.90;;;;;;5131352;27;20119;-76
2022/07/11 05:54:14;;;;;;;4.85;0.98;;;17.00;99.90;;;;;;5113518;27;20491;-77
2022/07/11 05:56:40;;;;;;;1.80;0.80;;;17.00;99.90;;;;;;5132320;27;20053;-76
2022/07/11 05:59:09;;;;;;;2.38;0.98;;;17.10;99.90;;;;;;5112970;27;20042;-76
2022/07/11 06:01:36;;;;;;;6.78;0.90;;;17.20;99.90;;;;;;5130575;27;20151;-79
2022/07/11 06:04:04;;;;;;;2.95;1.00;;;17.20;99.90;;;;;;5114449;27;20047;-75
2022/07/11 06:06:30;;;;;;;3.88;1.35;;;17.30;99.90;;;;;;5109886;27;20051;-75
2022/07/11 06:08:58;;;;;;;2.97;0.80;;;17.30;99.90;;;;;;5112892;27;20082;-76
2022/07/11 06:11:25;;;;;;;2.50;1.00;;;17.40;99.90;;;;;;5138436;27;20044;-76
2022/07/11 06:13:52;;;;;;;2.92;1.00;;;17.60;99.90;;;;;;5137302;27;20043;-76
2022/07/11 06:16:20;;;;;;;1.40;0.70;;;17.70;99.90;;;;;;5135085;27;20059;-77
2022/07/11 06:18:47;;;;;;;3.05;0.77;;;17.90;99.90;;;;;;5126344;27;20079;-78
2022/07/11 06:21:14;;;;;;;3.38;0.80;;;18.00;99.90;;;;;;5110279;27;20487;-77
2022/07/11 06:23:42;;;;;;;2.10;1.00;;;18.00;99.90;;;;;;5128904;27;20047;-76
2022/07/11 06:26:11;;;;;;;2.25;0.80;;;18.10;99.90;;;;;;5126345;27;20047;-79
2022/07/11 06:28:38;;;;;;;2.88;1.08;;;18.20;99.90;;;;;;5111354;27;20047;-76
2022/07/11 06:31:05;;;;;;;2.83;0.73;;;18.10;99.90;;;;;;5110633;27;20054;-77
2022/07/11 06:33:33;;;;;;;1.88;0.60;;;18.20;99.90;;;;;;5108287;27;20039;-78
2022/07/11 06:36:01;;;;;;;2.92;0.77;;;18.20;99.90;;;;;;5123673;27;20047;-76
2022/07/11 06:38:29;;;;;;;3.08;0.70;;;18.00;99.90;;;;;;5126711;27;20075;-78
2022/07/11 06:40:56;;;;;;;2.67;1.00;;;17.90;99.90;;;;;;5126829;27;20042;-77
2022/07/11 06:43:23;;;;;;;1.77;0.82;;;17.80;99.90;;;;;;5108891;28;20051;-77
2022/07/11 06:45:50;;;;;;;2.28;0.88;;;17.80;99.90;;;;;;5112917;28;20579;-77
2022/07/11 06:48:17;;;;;;;5.38;1.00;;;17.80;99.90;;;;;;5128228;28;20051;-77
2022/07/11 06:50:45;;;;;;;2.17;0.93;;;17.90;99.90;;;;;;5110133;27;20088;-76
2022/07/11 06:53:12;;;;;;;4.97;0.90;;;18.00;99.90;;;;;;5110719;27;20483;-76
2022/07/11 06:55:39;;;;;;;2.17;0.70;;;18.30;99.90;;;;;;5110384;27;20130;-76
2022/07/11 06:58:06;;;;;;;1.80;0.70;;;18.40;99.90;;;;;;5118163;27;20506;-74
2022/07/11 07:00:33;;;;;;;1.60;0.60;;;18.60;99.90;;;;;;5074710;27;20047;-76
2022/07/11 07:03:01;;;;;;;2.65;0.75;;;18.70;99.90;;;;;;5131754;27;20487;-76
2022/07/11 07:05:29;;;;;;;1.13;0.63;;;18.70;99.90;;;;;;5109516;27;20082;-76
2022/07/11 07:07:58;;;;;;;2.15;0.90;;;18.80;99.90;;;;;;5116209;27;20461;-76
2022/07/11 07:10:26;;;;;;;3.17;0.90;;;18.90;99.90;;;;;;5134014;27;20575;-75
2022/07/11 07:12:53;;;;;;;3.30;0.82;;;19.10;99.90;;;;;;5112030;27;20418;-78
2022/07/11 07:15:21;;;;;;;3.95;1.10;;;19.30;99.90;;;;;;5131073;27;20072;-75
2022/07/11 07:17:48;;;;;;;1.48;0.73;;;19.40;99.90;;;;;;5115239;27;20421;-76
2022/07/11 07:20:16;;;;;;;1.95;0.80;;;19.40;99.90;;;;;;5131857;27;20043;-75
2022/07/11 07:22:43;;;;;;;2.30;1.10;;;19.30;99.90;;;;;;5111649;27;20055;-75
2022/07/11 07:25:12;;;;;;;1.98;0.95;;;19.30;99.90;;;;;;5129760;27;20448;-75
2022/07/11 07:27:40;;;;;;;2.08;0.90;;;19.20;99.90;;;;;;5115452;27;20047;-75
2022/07/11 07:30:08;;;;;;;2.53;0.90;;;19.10;99.90;;;;;;5115829;27;20035;-75
2022/07/11 07:32:36;;;;;;;4.05;1.20;;;19.20;99.90;;;;;;5111364;27;20138;-75
2022/07/11 07:35:03;;;;;;;2.58;1.02;;;19.20;99.90;;;;;;5108604;27;20104;-74
2022/07/11 07:37:30;;;;;;;1.60;0.60;;;19.50;99.90;;;;;;5114804;27;20051;-75
2022/07/11 07:39:58;;;;;;;1.40;0.75;;;19.80;99.90;;;;;;5110989;27;20105;-74
2022/07/11 07:42:27;;;;;;;2.15;0.88;;;20.30;99.90;;;;;;5132918;27;20047;-75
2022/07/11 07:44:55;;;;;;;1.88;0.70;;;20.60;99.90;;;;;;5113260;27;20043;-74
2022/07/11 07:47:22;;;;;;;1.38;0.60;;;20.80;99.90;;;;;;5129081;27;20039;-74
2022/07/11 07:49:50;;;;;;;1.45;0.75;;;21.10;99.90;;;;;;5115727;27;20079;-74
2022/07/11 07:52:18;;;;;;;3.35;0.60;;;21.40;99.90;;;;;;5130012;27;20047;-74
2022/07/11 07:54:46;;;;;;;2.22;0.80;;;21.50;99.90;;;;;;5126473;27;20082;-74
2022/07/11 07:57:14;;;;;;;1.80;0.65;;;21.50;99.90;;;;;;5114894;27;20054;-73
2022/07/11 07:59:43;;;;;;;1.38;0.50;;;21.40;99.90;;;;;;5133743;27;20433;-74
2022/07/11 08:02:10;;;;;;;1.63;0.50;;;21.30;99.90;;;;;;5128154;27;20089;-74
2022/07/11 08:04:37;;;;;;;1.02;0.50;;;21.50;99.90;;;;;;5115900;27;20042;-74
2022/07/11 08:07:05;;;;;;;0.40;0.32;;;21.60;99.90;;;;;;5113358;27;20079;-74
2022/07/11 08:09:32;;;;;;;0.63;0.30;;;22.20;99.90;;;;;;5116997;27;20047;-74
2022/07/11 08:12:00;;;;;;;0.85;0.38;;;22.70;99.90;;;;;;5129211;27;20057;-75
2022/07/11 08:14:28;;;;;;;1.67;0.70;;;22.80;99.90;;;;;;5124900;27;20061;-74
2022/07/11 08:16:57;;;;;;;0.60;0.28;;;22.90;99.90;;;;;;5134199;27;20051;-74
2022/07/11 08:19:24;;;;;;;1.42;0.70;;;23.20;99.90;;;;;;5131539;27;20117;-74
2022/07/11 08:21:52;;;;;;;0.47;0.30;;;23.60;99.90;;;;;;5100377;27;20047;-74
2022/07/11 08:24:19;;;;;;;0.70;0.30;;;23.90;99.90;;;;;;5109063;27;20043;-75
2022/07/11 08:26:47;;;;;;;1.00;0.30;;;23.80;99.90;;;;;;5132469;27;20286;-75
2022/07/11 08:29:14;;;;;;;0.40;0.22;;;23.60;99.90;;;;;;5132616;27;20509;-74
2022/07/11 08:31:41;;;;;;;2.08;0.40;;;23.30;99.90;;;;;;5120392;27;20095;-75
2022/07/11 08:34:10;;;;;;;0.70;0.30;;;22.80;99.90;;;;;;5115118;27;20555;-75
2022/07/11 08:36:37;;;;;;;0.70;0.40;;;22.40;99.90;;;;;;5113640;27;20043;-75
2022/07/11 08:39:05;;;;;;;1.58;0.40;;;22.00;99.90;;;;;;5134181;27;20051;-74
2022/07/11 08:41:33;;;;;;;1.40;0.50;;;21.80;99.90;;;;;;5132522;27;20039;-75
2022/07/11 08:44:01;;;;;;;1.35;0.40;;;21.50;99.90;;;;;;5132341;27;20047;-73
2022/07/11 08:46:31;;;;;;;1.08;0.40;;;21.40;99.90;;;;;;5108283;27;20043;-74
2022/07/11 08:49:00;;;;;;;0.30;0.30;;;21.30;99.90;;;;;;5114097;27;20448;-75
2022/07/11 08:51:30;;;;;;;0.30;0.30;;;21.90;99.90;;;;;;5114372;27;20053;-75
2022/07/11 08:53:58;;;;;;;1.60;0.30;;;22.90;99.90;;;;;;5132492;27;20092;-75
2022/07/11 08:56:29;;;;;;;0.70;0.30;;;23.50;99.90;;;;;;5113815;27;20043;-76
2022/07/11 08:58:59;;;;;;;1.30;0.50;;;23.50;99.90;;;;;;5112616;27;20503;-76
2022/07/11 09:01:30;;;;;;;0.90;0.50;;;23.40;99.90;;;;;;5128666;27;20057;-75
2022/07/11 09:03:58;;;;;;;0.38;0.20;;;23.20;99.90;;;;;;5108013;27;20050;-75
2022/07/11 09:06:26;;;;;;;0.55;0.30;;;23.00;99.90;;;;;;5123103;27;20043;-75
2022/07/11 09:08:58;;;;;;;8.65;0.90;;;22.70;99.90;;;;;;5133550;27;20083;-75
2022/07/11 09:11:26;;;;;;;2.70;0.82;;;22.40;99.90;;;;;;5131692;27;20045;-76
2022/07/11 09:13:54;;;;;;;2.05;0.80;;;22.20;99.90;;;;;;5110162;27;20050;-76
2022/07/11 09:16:26;;;;;;;2.83;0.43;;;22.10;99.90;;;;;;5113294;27;20444;-76
2022/07/11 09:18:57;;;;;;;4.38;0.95;;;22.00;99.90;;;;;;5126902;27;20039;-76
2022/07/11 09:26:56;;;;;;;1.27;0.50;;;21.60;99.90;;;;;;5110456;27;20150;-75
2022/07/11 09:29:24;;;;;;;1.55;0.45;;;21.60;99.90;;;;;;5114024;27;20099;-76
2022/07/11 09:31:52;;;;;;;2.70;0.47;;;21.40;99.90;;;;;;5111406;27;20043;-76
2022/07/11 09:34:23;;;;;;;2.28;0.60;;;21.40;99.90;;;;;;5127677;27;20047;-76
2022/07/11 09:36:54;;;;;;;0.77;0.50;;;21.20;99.90;;;;;;5114427;27;20255;-75
2022/07/11 09:39:24;;;;;;;3.63;0.57;;;21.20;99.90;;;;;;5129415;27;20047;-75
2022/07/11 09:41:53;;;;;;;0.57;0.40;;;21.20;99.90;;;;;;5130607;27;20502;-75
2022/07/11 09:44:23;;;;;;;2.33;0.60;;;21.10;99.90;;;;;;5111042;27;20047;-76
2022/07/11 09:46:53;;;;;;;3.03;0.80;;;20.90;99.90;;;;;;5110593;27;20075;-76
2022/07/11 09:49:31;;;;;;;2.57;0.70;;;20.70;99.90;;;;;;5128953;27;20517;-76
2022/07/11 09:52:08;;;;;;;2.55;0.65;;;20.50;99.90;;;;;;5108948;27;20669;-76
2022/07/11 09:54:57;;;;;;;1.42;0.60;;;20.40;99.90;;;;;;5130682;27;20047;-75
2022/07/11 09:57:32;;;;;;;0.90;0.40;;;20.30;99.90;;;;;;5105705;27;20055;-76
2022/07/11 10:00:01;;;;;;;2.60;1.05;;;20.30;99.90;;;;;;5126203;27;20120;-75
2022/07/11 10:02:28;;;;;;;1.10;0.47;;;20.20;99.90;;;;;;5105615;27;20123;-75
2022/07/11 10:04:56;;;;;;;1.00;0.40;;;20.30;99.90;;;;;;5108314;27;20043;-75
2022/07/11 10:07:24;;;;;;;1.52;0.50;;;20.30;99.90;;;;;;5126810;27;20079;-75
2022/07/11 10:09:53;;;;;;;2.10;0.90;;;20.30;99.90;;;;;;5112333;27;20208;-75
2022/07/11 10:12:22;;;;;;;1.35;0.50;;;20.30;99.90;;;;;;5106941;27;20459;-75
2022/07/11 10:14:50;;;;;;;2.63;0.50;;;20.40;99.90;;;;;;5109982;27;20055;-76
2022/07/11 10:17:26;;;;;;;0.82;0.40;;;20.60;99.90;;;;;;5111506;27;20096;-76
2022/07/11 10:20:02;;;;;;;1.02;0.40;;;20.80;99.90;;;;;;5124493;27;20096;-75
2022/07/11 10:22:39;;;;;;;0.50;0.30;;;21.00;99.90;;;;;;5128095;27;20051;-76
2022/07/11 10:25:20;;;;;;;1.75;0.52;;;21.10;99.90;;;;;;5128390;27;20053;-75
2022/07/11 10:28:13;;;;;;;1.02;0.40;;;21.20;99.90;;;;;;5112082;27;20495;-74
2022/07/11 10:30:48;;;;;;;1.02;0.50;;;21.20;99.90;;;;;;5111801;28;20487;-74
2022/07/11 10:33:16;;;;;;;1.10;0.52;;;21.20;99.90;;;;;;5130062;27;20405;-74
2022/07/11 10:35:45;;;;;;;1.05;0.60;;;21.20;99.90;;;;;;5112407;27;20058;-75
2022/07/11 10:38:14;;;;;;;2.63;0.57;;;21.00;99.90;;;;;;5125323;27;20506;-73
2022/07/11 10:40:45;;;;;;;4.32;0.60;;;21.20;99.90;;;;;;5112485;27;20051;-74
2022/07/11 10:43:14;;;;;;;1.33;0.60;;;21.30;99.90;;;;;;5112130;28;20054;-74
2022/07/11 10:45:56;;;;;;;1.00;0.55;;;21.20;99.90;;;;;;5112850;28;20080;-74
2022/07/11 10:48:24;;;;;;;1.38;0.70;;;21.10;99.90;;;;;;5108919;28;20107;-76
2022/07/11 10:51:04;;;;;;;1.60;0.65;;;21.20;99.90;;;;;;5121508;28;20043;-74
2022/07/11 10:53:34;;;;;;;1.98;0.68;;;21.20;99.90;;;;;;5117260;28;20079;-74
2022/07/11 10:56:16;;;;;;;4.22;0.60;;;21.30;99.90;;;;;;5138353;28;20074;-72
2022/07/11 10:58:44;;;;;;;2.03;0.70;;;21.30;99.90;;;;;;5122461;28;20051;-75
2022/07/11 11:01:13;;;;;;;0.65;0.40;;;21.40;99.90;;;;;;5114875;28;20050;-75
2022/07/11 11:03:42;;;;;;;0.88;0.47;;;21.50;99.90;;;;;;5098136;28;20058;-75
2022/07/11 11:06:10;;;;;;;1.20;0.50;;;21.50;99.90;;;;;;5119794;28;20100;-75
2022/07/11 11:08:46;;;;;;;1.17;0.60;;;21.50;99.90;;;;;;5098106;28;20480;-75
2022/07/11 11:11:38;;;;;;;1.05;0.40;;;21.70;99.90;;;;;;5111617;28;20508;-76
2022/07/11 11:14:26;;;;;;;0.93;0.40;;;21.80;99.90;;;;;;5112909;28;20385;-74
2022/07/11 11:16:54;;;;;;;1.52;0.47;;;21.70;99.90;;;;;;5127832;28;20051;-75
2022/07/11 11:19:55;;;;;;;0.47;0.35;;;21.80;99.90;;;;;;5133216;28;20502;-75
2022/07/11 11:22:25;;;;;;;0.95;0.30;;;21.80;99.90;;;;;;5050148;28;20436;-76
2022/07/11 11:24:55;;;;;;;0.73;0.38;;;21.90;99.90;;;;;;5032259;28;20045;-76
2022/07/11 11:27:25;;;;;;;0.77;0.40;;;21.90;99.90;;;;;;5080386;28;20521;-74
2022/07/11 11:29:54;;;;;;;1.67;0.57;;;21.80;99.90;;;;;;5114172;28;20097;-75
2022/07/11 11:32:21;;;;;;;1.48;0.63;;;21.90;99.90;;;;;;5111792;28;20218;-76
2022/07/11 11:34:49;;;;;;;1.25;0.50;;;21.80;99.90;;;;;;5094210;28;20051;-74
2022/07/11 11:37:18;;;;;;;1.00;0.50;;;21.80;99.90;;;;;;5103835;27;20050;-75
2022/07/11 11:39:46;;;;;;;0.50;0.40;;;21.90;99.90;;;;;;5136171;27;20077;-76
2022/07/11 11:42:18;;;;;;;1.08;0.50;;;21.90;99.90;;;;;;5117786;27;20082;-75
2022/07/11 11:44:56;;;;;;;0.82;0.50;;;21.80;99.90;;;;;;5136834;27;20062;-75
2022/07/11 11:47:24;;;;;;;1.48;0.40;;;21.70;99.90;;;;;;5137100;27;20136;-75
2022/07/11 11:49:53;;;;;;;1.35;0.50;;;21.80;99.90;;;;;;5135020;27;20371;-75
2022/07/11 11:52:20;;;;;;;0.75;0.40;;;21.70;99.90;;;;;;5116165;28;20051;-74
2022/07/11 11:54:58;;;;;;;3.13;0.63;;;21.80;99.90;;;;;;5117618;27;20166;-74
2022/07/11 11:57:27;;;;;;;0.90;0.50;;;21.80;99.90;;;;;;5131014;27;20043;-74
2022/07/11 11:59:57;;;;;;;1.52;0.60;;;21.80;99.90;;;;;;5117354;27;20145;-74
2022/07/11 12:02:27;;;;;;;1.05;0.57;;;21.90;99.90;;;;;;5136166;27;20043;-74
2022/07/11 12:04:55;;;;;;;1.58;0.85;;;21.80;99.90;;;;;;5104026;28;20035;-75
2022/07/11 12:07:28;;;;;;;3.42;0.70;;;21.70;99.90;;;;;;5114515;28;20227;-74
2022/07/11 12:09:56;;;;;;;2.10;0.77;;;21.80;99.90;;;;;;5116080;27;20051;-75
2022/07/11 12:15:27;;;;;;;1.13;0.40;;;22.00;99.90;;;;;;5103368;27;20051;-74
2022/07/11 12:18:00;;;;;;;1.00;0.50;;;22.10;99.90;;;;;;5136016;27;20053;-75
2022/07/11 12:20:49;;;;;;;1.20;0.50;;;22.20;99.90;;;;;;5135255;27;20478;-76
2022/07/11 12:23:19;;;;;;;1.17;0.60;;;22.20;99.90;;;;;;5133946;27;20082;-74
2022/07/11 12:25:47;;;;;;;0.65;0.38;;;22.20;99.90;;;;;;5122784;27;20101;-75
2022/07/11 12:28:15;;;;;;;0.95;0.43;;;22.30;99.90;;;;;;5112223;27;20051;-76
2022/07/11 12:30:44;;;;;;;1.33;0.50;;;22.30;99.90;;;;;;5128688;27;20127;-78
2022/07/11 12:33:13;;;;;;;6.50;0.98;;;22.30;99.90;;;;;;5108840;28;20523;-75
2022/07/11 12:35:55;;;;;;;3.88;0.50;;;22.30;99.90;;;;;;5105530;27;20123;-75
2022/07/11 12:38:23;;;;;;;3.35;0.70;;;22.30;99.90;;;;;;5103448;27;20075;-75
2022/07/11 12:41:04;;;;;;;2.10;0.60;;;22.30;99.90;;;;;;5123684;27;20051;-75
2022/07/11 12:46:41;;;;;;;1.83;0.50;;;22.20;99.90;;;;;;5113038;27;20122;-76
2022/07/11 12:49:10;;;;;;;2.28;0.50;;;22.10;99.90;;;;;;5113830;27;20523;-74
2022/07/11 12:51:40;;;;;;;2.28;0.85;;;22.00;99.90;;;;;;5096189;28;20097;-76
2022/07/11 12:54:09;;;;;;;1.98;0.55;;;22.00;99.90;;;;;;5105477;27;20414;-75
2022/07/11 12:56:36;;;;;;;2.17;0.60;;;21.90;99.90;;;;;;5121330;27;20126;-74
2022/07/11 12:59:04;;;;;;;1.02;0.40;;;21.90;99.90;;;;;;5116383;27;20047;-75
2022/07/11 13:01:32;;;;;;;2.88;0.60;;;22.00;99.90;;;;;;5127655;27;20055;-75
2022/07/11 13:04:00;;;;;;;2.72;0.60;;;21.90;99.90;;;;;;5128956;27;20048;-74
2022/07/11 13:09:15;;;;;;;2.08;1.08;;;22.10;99.90;;;;;;5117736;28;20138;-73